Granite Shoals, Texas
Current Conditions -  °F | °C
As of 4:15 AM on Friday 31 Oct 2014 (Local Time) from KDZB Reporting Station
Overcast Overcast  
Wind Chill: 64°   Ceiling: 4800
Heat Index: 64°   Visibility: 10mi
Dew Point: 64°   Wind: 0mph
Humidity: 100%   Direction: NA
Pressure: 30.19"   Gusts: NA
Location:  30.5925°N, 98.2219°W
Report Text: KDZB 310915Z AUTO 00000KT 10SM SCT041 BKN048 OVC060 18/18 A3019 RMK AO2 LTG DSNT SE AND SW T01780178
Loading
Personal Weather Stations






























Interactive Weather Map
Tropical Storm Tracking
New forecast layout! Learn more

10-Day Weather Forecast

Advertisements
Track Severe Weather on mobile